Airfield :
LOGIN :

Register | Disclaimer

   EN    FR    IT 

 










Legend :    VFR   Marginal VFR   IFR   Intensive IFR   Very Intensive IFR
Visi :
Ceiling :
>= 8 km
>= 3000ft
5 to 8 km
1000 to 3000 ft
1500m to 5 km
500 to 1000 ft
800 to 1500m
200 to 500 ft
< 800m
< 200 ft
Symbols :   Thunderstorms  Fog  Heavy snow  Heavy precipitations  Wind > 20 kt
SIGMETs :     Misc.  Thunderstorms  Icing  Turbulence  Mountain Waves  Volcanic Ashes






- Airport Elevation : 74 ft
- IATA code : NDZ


ETMN - Cuxhaven Nordholz Sea AB

CURRENT METAR :
  • 211320Z 17010G21KT 8000 -DZ SCT008 BKN058 BKN095 13/12 Q1000 BLU BLU

EXPIRED METARs :
  • 211252Z 18010KT 5000 -DZ BR SCT008 BKN028 13/12 Q1000 WHT GRN TEMPO WHT
  • 211220Z 17011KT 5000 -DZ BR FEW004 BKN008 BKN028 13/12 Q1001 GRN GRN
  • 211207Z 17010KT 8000 -RADZ FEW004 BKN008 12/12 Q1001 GRN GRN
  • 211152Z 17010KT 4000 -RADZ BR FEW004 BKN006 12/12 Q1002 RERA YLO GRN TEMPO YLO
  • 211120Z 18011KT 5000 -RADZ BR FEW004 BKN007 BKN011 12/11 Q1002 RERA GRN GRN TEMPO YLO
  • 211052Z 17009KT 5000 -RADZ BR FEW004 SCT008 BKN010 12/11 Q1002 RERA GRN GRN TEMPO YLO

TAF COR TAF ETMN
Valid from the 21 at 14:00 until the 21 at 23:00 UTC


211322Z 2114/2123 18010G20KT 9999 NSW SCT008 BKN060
TEMPO 2114/2116 18015G25KT 9999 NSW SCT080
BECMG 2116/2118 22015G25KT 9999 NSW SCT010 BKN025
TEMPO 2118/2123 22020G35KT 9999 NSW BKN010



MET'MAP, your aeronautical weather chart ! - Copyright ORBIFLY December 2007 - Disclaimer

ORBIFLY MET'MAP TEAM :

Programming & Development : Alexandra Zaïnal
Concept & original design : Baudouin d'Aumeries
Assistance for programming : Marc-Olivier Méhu
Technical & hardware support : Manuel Goepfert

Contact : metmap@orbifly.com




SOURCES & CREDITS :

   NOAA